createdAt,value
2023-09-06T02:10:20.113Z,14.27
2023-09-06T03:18:28.815Z,14.44
2023-09-06T03:28:32.383Z,14.52
2023-09-06T03:38:38.398Z,14.52
2023-09-06T03:48:42.845Z,14.71
2023-09-06T03:58:47.351Z,15.05
2023-09-06T04:08:55.181Z,15.40
2023-09-06T04:19:02.711Z,15.70
2023-09-06T04:29:06.674Z,16.02
2023-09-06T04:39:11.150Z,16.29
2023-09-06T04:49:31.583Z,16.59
2023-09-06T04:59:38.136Z,16.90
2023-09-06T05:09:42.004Z,17.27
2023-09-06T05:19:56.829Z,17.61
2023-09-06T05:29:59.871Z,17.89
2023-09-06T05:40:15.400Z,18.27
2023-09-06T05:50:18.804Z,18.64
2023-09-06T06:00:25.961Z,19.10
2023-09-06T06:10:38.133Z,19.40
2023-09-06T06:32:50.969Z,19.68
2023-09-06T06:43:15.624Z,19.73
2023-09-06T06:53:34.138Z,19.84
2023-09-06T07:03:39.875Z,20.07
2023-09-06T07:13:59.704Z,20.29
2023-09-06T07:24:08.620Z,20.44
2023-09-06T07:34:26.200Z,20.62
2023-09-06T07:44:35.874Z,20.77
2023-09-06T07:54:50.380Z,20.90
2023-09-06T08:15:42.453Z,21.12
2023-09-06T08:25:54.078Z,21.25
2023-09-06T08:36:05.563Z,21.38
2023-09-06T08:46:43.731Z,21.51
2023-09-06T09:07:18.651Z,21.71
2023-09-06T09:17:25.245Z,21.78
2023-09-06T09:27:29.886Z,21.87
2023-09-06T09:37:52.209Z,21.97
2023-09-06T09:47:58.540Z,22.09
2023-09-06T09:58:09.740Z,22.15
2023-09-06T10:08:15.791Z,22.22
2023-09-06T10:18:23.887Z,22.23
2023-09-06T10:28:27.878Z,22.22
2023-09-06T10:38:35.887Z,22.22
2023-09-06T10:48:41.600Z,22.19
2023-09-06T10:58:47.827Z,22.18
2023-09-06T11:08:52.379Z,22.12
2023-09-06T11:18:58.304Z,22.04
2023-09-06T11:29:07.710Z,21.96
2023-09-06T11:39:24.102Z,21.87
2023-09-06T11:49:31.926Z,21.76
2023-09-06T11:59:45.800Z,21.63
2023-09-06T12:20:24.749Z,21.54
2023-09-06T12:30:41.514Z,21.51
2023-09-06T12:40:47.997Z,21.56
2023-09-06T12:50:57.769Z,21.62
2023-09-06T13:01:12.934Z,21.66
2023-09-06T13:11:21.995Z,21.67
2023-09-06T13:21:28.072Z,21.64
2023-09-06T13:32:16.171Z,21.62
2023-09-06T13:42:22.473Z,21.51
2023-09-06T13:52:46.786Z,21.46
2023-09-06T14:14:39.919Z,21.19
2023-09-06T14:24:53.166Z,20.90
2023-09-06T14:36:04.557Z,20.58
2023-09-06T14:47:49.100Z,20.26
2023-09-06T15:09:30.079Z,19.60
2023-09-06T15:19:48.899Z,19.30
2023-09-06T15:30:10.224Z,19.00
2023-09-06T15:40:16.812Z,18.74
2023-09-06T15:50:25.576Z,18.49
2023-09-06T16:00:33.891Z,18.27
2023-09-06T16:10:39.325Z,18.05
2023-09-06T16:31:47.143Z,17.56
2023-09-06T17:15:14.469Z,16.68
2023-09-06T17:25:22.285Z,16.47
2023-09-06T17:35:28.781Z,16.26
2023-09-06T17:45:36.450Z,16.05
2023-09-06T17:55:43.222Z,15.84
2023-09-06T18:05:57.345Z,15.64
2023-09-06T18:16:06.729Z,15.44
2023-09-06T18:26:13.983Z,15.24
2023-09-06T18:36:24.791Z,15.02
2023-09-06T18:46:31.256Z,14.76
2023-09-06T18:56:38.896Z,14.55
2023-09-06T19:06:48.478Z,14.34
2023-09-06T19:16:59.424Z,14.13
2023-09-06T19:27:05.723Z,13.92
2023-09-06T19:37:12.439Z,13.74
2023-09-06T19:47:23.523Z,13.56
2023-09-06T19:57:32.047Z,13.36
2023-09-06T20:08:10.722Z,13.14
2023-09-06T21:02:54.783Z,12.17
2023-09-06T21:13:43.668Z,11.99
2023-09-06T21:25:03.229Z,11.79
2023-09-06T22:32:42.288Z,10.89
2023-09-06T22:43:15.945Z,10.71
2023-09-06T22:53:59.431Z,10.59
2023-09-06T23:04:42.817Z,10.47
2023-09-06T23:15:18.728Z,10.34
2023-09-06T23:25:39.904Z,10.23
2023-09-06T23:36:36.537Z,10.06
2023-09-06T23:46:53.833Z,9.94
2023-09-06T23:56:59.830Z,9.80
